DAAJ/DJG METAR and TAF weather

Enter ICAO airport designator
Station Type Date Time Source
DAAJ METAR 2021/10/20 06:00 UTC NOAA

DAAJ 200600Z 10018KT 8000 NSC 20/09 Q1018


Station Type Date Time Source
DAAJ Decoded METAR 2021/10/20 06:00 UTC NOAA

Djanet, Algeria (DAAJ) 24-33N 009-28E 1054M
Oct 20, 2021 - 02:00 AM EDT / 2021.10.20 0600 UTC
Wind: from the E (100 degrees) at 21 MPH (18 KT):0
Visibility: 4 mile(s):0
Temperature: 68 F (20 C)
Dew Point: 48 F (9 C)
Relative Humidity: 49%
Pressure (altimeter): 30.06 in. Hg (1018 hPa)
ob: DAAJ 200600Z 10018KT 8000 NSC 20/09 Q1018
cycle: 6

Station Type Date Time Source
DAAJ TAF 2021/10/20 06:31 UTC NOAA

TAF DAAJ 200500Z 2006/2106 12016KT 8000 SCT046 PROB40
TEMPO 2007/2011 14020G30KT 2000 DRSA FEW046CB PROB40
TEMPO 2008/2012 VRB20G35KT 3000 -TSRA FEW040CB PROB30
TEMPO 2014/2020 VRB20G35KT 2000 TSRA FEW040CB

Example: see airport list